Time;durP1;ratioP1;P1;durP2;ratioP2;P2;SDS_P1;SDS_P2;PMS_P1;PMS_P2;Temp;Humidity;BMP_temperature;BMP_pressure;BME280_temperature;BME280_humidity;BME280_pressure;Samples;Min_cycle;Max_cycle;Signal;HPM_P1;HPM_P2
2023/03/23 00:01:56;;;;;;;1.97;1.30;;;;;;;13.74;57.68;97521.03;5074279;28;20562;-74
2023/03/23 00:04:26;;;;;;;1.63;1.20;;;;;;;13.80;58.41;97527.25;5074468;28;20208;-74
2023/03/23 00:06:53;;;;;;;1.63;1.30;;;;;;;13.83;57.71;97534.75;5074548;28;20208;-74
2023/03/23 00:09:23;;;;;;;1.90;1.10;;;;;;;13.78;57.70;97522.16;5073688;28;20219;-74
2023/03/23 00:11:51;;;;;;;1.50;1.03;;;;;;;13.78;57.63;97524.81;5074103;28;20208;-74
2023/03/23 00:14:22;;;;;;;2.00;1.07;;;;;;;13.68;58.74;97524.72;5074289;28;20257;-74
2023/03/23 00:16:49;;;;;;;2.40;1.10;;;;;;;13.65;58.53;97525.22;5073986;28;20185;-74
2023/03/23 00:19:19;;;;;;;1.77;1.10;;;;;;;13.55;60.65;97527.78;5074338;28;20204;-74
2023/03/23 00:21:45;;;;;;;0.97;0.97;;;;;;;13.48;61.63;97529.81;5074118;28;20211;-74
2023/03/23 00:24:18;;;;;;;1.83;1.33;;;;;;;13.56;59.24;97520.59;5073765;28;20205;-74
2023/03/23 00:26:46;;;;;;;1.63;1.10;;;;;;;13.77;58.10;97520.53;5073981;28;20223;-74
2023/03/23 00:29:21;;;;;;;2.30;1.10;;;;;;;13.79;58.23;97514.94;5074028;28;20204;-74
2023/03/23 00:31:49;;;;;;;1.20;1.10;;;;;;;13.84;58.13;97517.66;5073967;28;20539;-74
2023/03/23 00:34:18;;;;;;;1.20;1.10;;;;;;;13.79;58.58;97515.72;5073883;28;20204;-74
2023/03/23 00:36:49;;;;;;;1.20;1.07;;;;;;;13.78;59.59;97508.78;5074011;28;20223;-74
2023/03/23 00:39:17;;;;;;;2.17;1.20;;;;;;;13.89;58.04;97515.03;5073606;28;20189;-74
2023/03/23 00:41:44;;;;;;;1.27;1.10;;;;;;;13.97;57.79;97502.03;5073584;28;20668;-74
2023/03/23 00:44:16;;;;;;;2.07;1.23;;;;;;;14.06;57.17;97489.81;5073775;28;20291;-74
2023/03/23 00:46:44;;;;;;;1.60;0.93;;;;;;;14.02;57.63;97494.03;5074522;28;20238;-74
2023/03/23 00:49:15;;;;;;;1.30;1.03;;;;;;;13.93;58.33;97487.53;5073740;28;20240;-74
2023/03/23 00:51:42;;;;;;;4.17;1.03;;;;;;;13.80;59.66;97493.28;5073618;28;20211;-74
2023/03/23 00:54:10;;;;;;;1.97;1.10;;;;;;;13.71;60.09;97486.78;5073658;28;20200;-74
2023/03/23 00:56:36;;;;;;;1.27;0.90;;;;;;;13.70;59.28;97490.53;5073615;28;20203;-74
2023/03/23 00:59:03;;;;;;;1.57;1.00;;;;;;;13.59;61.36;97483.50;5073638;28;20205;-74
2023/03/23 01:01:30;;;;;;;1.90;1.23;;;;;;;13.62;60.60;97474.94;5073596;28;20205;-74
2023/03/23 01:04:00;;;;;;;1.27;1.10;;;;;;;13.52;60.73;97474.84;5073430;28;20306;-74
2023/03/23 01:06:30;;;;;;;2.27;1.17;;;;;;;13.47;61.49;97471.34;5073800;28;20212;-74
2023/03/23 01:08:57;;;;;;;1.17;1.10;;;;;;;13.37;61.72;97469.34;5073504;28;20204;-74
2023/03/23 01:11:24;;;;;;;1.20;1.10;;;;;;;13.45;61.33;97470.78;5073557;28;20205;-74
2023/03/23 01:13:51;;;;;;;1.73;1.37;;;;;;;13.42;60.44;97473.94;5073447;28;20229;-74
2023/03/23 01:16:17;;;;;;;1.43;1.13;;;;;;;13.44;60.05;97471.84;5073477;28;20200;-74
2023/03/23 01:18:44;;;;;;;3.47;1.37;;;;;;;13.48;60.49;97467.63;5073465;28;20211;-74
2023/03/23 01:21:14;;;;;;;2.53;1.20;;;;;;;13.38;60.75;97476.31;5077643;28;20208;-74
2023/03/23 01:23:40;;;;;;;1.40;1.30;;;;;;;13.44;59.80;97461.97;5077141;28;20636;-74
2023/03/23 01:26:10;;;;;;;1.33;1.10;;;;;;;13.37;60.39;97464.03;5077422;28;20216;-74
2023/03/23 01:28:37;;;;;;;1.20;1.10;;;;;;;13.39;60.26;97451.22;5077446;28;20255;-74
2023/03/23 01:31:11;;;;;;;1.63;1.10;;;;;;;13.38;59.58;97460.28;5077672;28;20211;-74
2023/03/23 01:33:38;;;;;;;2.03;1.50;;;;;;;13.35;59.76;97455.47;5077064;28;20289;-74
2023/03/23 01:36:12;;;;;;;1.40;1.30;;;;;;;13.39;59.20;97450.44;5077295;28;20212;-74
2023/03/23 01:38:39;;;;;;;3.00;1.30;;;;;;;13.41;58.78;97451.78;5077035;28;20181;-73
2023/03/23 01:41:06;;;;;;;1.80;1.37;;;;;;;13.36;59.48;97433.06;5077276;28;20215;-74
2023/03/23 01:43:32;;;;;;;1.20;1.10;;;;;;;13.31;59.44;97433.00;5077129;28;20233;-74
2023/03/23 01:45:59;;;;;;;1.50;1.40;;;;;;;13.29;59.23;97435.09;5077156;28;20204;-74
2023/03/23 01:48:36;;;;;;;1.83;1.30;;;;;;;13.29;59.54;97434.31;5076745;28;20216;-74
2023/03/23 01:51:10;;;;;;;1.30;1.20;;;;;;;13.19;59.72;97437.66;5077069;28;20650;-74
2023/03/23 01:53:46;;;;;;;2.50;1.00;;;;;;;13.10;61.02;97431.16;5077228;28;20264;-74
2023/03/23 01:56:18;;;;;;;1.63;1.30;;;;;;;13.14;60.19;97429.59;5076720;28;20184;-74
2023/03/23 01:58:45;;;;;;;2.17;1.37;;;;;;;13.13;59.67;97438.66;5077075;28;20215;-74
2023/03/23 02:01:15;;;;;;;1.20;1.10;;;;;;;13.15;60.04;97433.88;5076804;28;20209;-74
2023/03/23 02:03:44;;;;;;;1.20;1.10;;;;;;;13.11;59.95;97432.75;5076449;28;20751;-74
2023/03/23 02:06:11;;;;;;;2.03;1.20;;;;;;;13.26;58.53;97432.13;5076765;28;20208;-74
2023/03/23 02:08:38;;;;;;;1.30;1.20;;;;;;;13.30;58.40;97434.03;5076368;28;20691;-73
2023/03/23 02:11:16;;;;;;;2.93;1.20;;;;;;;13.31;58.10;97430.31;5076627;28;20200;-73
2023/03/23 02:13:44;;;;;;;3.40;1.20;;;;;;;13.20;58.79;97420.56;5076553;28;20585;-74
2023/03/23 02:16:38;;;;;;;1.80;1.13;;;;;;;13.17;59.75;97430.97;5076623;28;20218;-74
2023/03/23 02:19:23;;;;;;;1.30;1.20;;;;;;;13.18;59.29;97428.03;5076844;28;20208;-74
2023/03/23 02:22:12;;;;;;;2.00;1.30;;;;;;;13.15;59.76;97427.75;5076112;28;20586;-73
2023/03/23 02:25:04;;;;;;;4.80;1.40;;;;;;;13.12;59.72;97429.03;5076469;28;20200;-74
2023/03/23 02:27:47;;;;;;;2.87;1.30;;;;;;;13.13;60.12;97428.00;5076271;28;20216;-73
2023/03/23 02:30:39;;;;;;;2.10;1.27;;;;;;;13.22;59.59;97423.00;5076015;28;20620;-74
2023/03/23 02:33:37;;;;;;;1.30;1.20;;;;;;;13.19;60.44;97418.97;5075775;28;20235;-74
2023/03/23 02:36:03;;;;;;;1.63;1.30;;;;;;;13.21;59.91;97406.16;5076196;28;20207;-74
2023/03/23 02:38:40;;;;;;;1.97;1.00;;;;;;;13.13;60.22;97409.31;5076123;28;20200;-74
2023/03/23 02:41:07;;;;;;;1.97;1.30;;;;;;;13.21;60.75;97392.03;5075791;28;20651;-73
2023/03/23 02:43:41;;;;;;;2.47;1.30;;;;;;;13.16;61.36;97394.66;5075866;28;20232;-74
2023/03/23 02:46:10;;;;;;;2.07;1.30;;;;;;;13.08;61.38;97379.91;5076203;28;20198;-74
2023/03/23 02:48:41;;;;;;;1.20;1.10;;;;;;;13.02;62.08;97386.22;5074562;28;20228;-74
2023/03/23 02:51:09;;;;;;;1.90;1.30;;;;;;;12.95;62.10;97388.25;5075828;28;20200;-74
2023/03/23 02:53:40;;;;;;;1.87;1.20;;;;;;;12.86;63.00;97387.09;5075498;28;20220;-74
2023/03/23 02:56:09;;;;;;;2.90;1.13;;;;;;;12.87;62.94;97378.03;5075780;28;20265;-72
2023/03/23 02:58:36;;;;;;;1.70;1.33;;;;;;;12.85;62.74;97374.78;5075751;28;20224;-74
2023/03/23 03:01:28;;;;;;;1.40;1.23;;;;;;;13.02;61.87;97370.22;5075883;28;20559;-73
2023/03/23 03:03:57;;;;;;;2.57;1.40;;;;;;;13.11;61.48;97363.38;5075575;28;20312;-74
2023/03/23 03:06:52;;;;;;;2.40;1.47;;;;;;;13.05;62.62;97366.22;5058698;28;20292;-74
2023/03/23 03:09:43;;;;;;;2.00;1.30;;;;;;;13.20;61.24;97366.41;5057808;28;20207;-73
2023/03/23 03:12:32;;;;;;;2.63;1.20;;;;;;;13.18;62.33;97364.00;5075467;28;20233;-74
2023/03/23 03:15:18;;;;;;;1.27;1.17;;;;;;;13.14;61.98;97360.22;5075140;28;20223;-74
2023/03/23 03:18:08;;;;;;;1.37;1.20;;;;;;;13.10;62.40;97361.75;5058446;28;20689;-74
2023/03/23 03:20:38;;;;;;;2.70;1.20;;;;;;;13.06;62.75;97366.00;5074643;28;20211;-74
2023/03/23 03:23:09;;;;;;;2.77;1.40;;;;;;;13.07;62.98;97364.94;5057943;28;20232;-74
2023/03/23 03:25:37;;;;;;;1.37;1.20;;;;;;;13.02;62.84;97369.44;5074060;28;20711;-74
2023/03/23 03:28:04;;;;;;;1.30;1.13;;;;;;;13.09;62.46;97360.16;5075093;28;20250;-74
2023/03/23 03:30:36;;;;;;;3.30;1.33;;;;;;;13.15;62.08;97363.69;5057532;28;20205;-74
2023/03/23 03:33:04;;;;;;;1.80;1.10;;;;;;;13.16;61.44;97368.75;5074835;28;20235;-74
2023/03/23 03:35:32;;;;;;;1.43;1.10;;;;;;;13.15;62.82;97363.69;5057494;28;20204;-74
2023/03/23 03:38:07;;;;;;;4.43;1.40;;;;;;;13.05;63.29;97377.72;5074682;28;20242;-74
2023/03/23 03:40:33;;;;;;;1.50;1.10;;;;;;;13.05;62.55;97367.06;5074664;28;20654;-74
2023/03/23 03:43:00;;;;;;;1.70;1.23;;;;;;;12.99;62.86;97362.72;5073519;28;20591;-74
2023/03/23 03:45:26;;;;;;;2.17;1.00;;;;;;;13.02;62.98;97359.53;5074654;28;20201;-74
2023/03/23 03:47:52;;;;;;;1.67;1.17;;;;;;;13.10;62.45;97360.94;5074658;28;20232;-74
2023/03/23 03:50:19;;;;;;;2.13;1.17;;;;;;;13.05;63.94;97353.72;5074957;28;20205;-74
2023/03/23 03:52:45;;;;;;;2.00;1.27;;;;;;;13.21;62.42;97347.44;5074506;28;20224;-74
2023/03/23 03:55:13;;;;;;;1.13;1.03;;;;;;;13.26;62.35;97349.38;5074525;28;20209;-74
2023/03/23 03:57:39;;;;;;;2.80;1.20;;;;;;;13.22;62.79;97343.75;5074495;28;20227;-74
2023/03/23 04:00:14;;;;;;;1.37;1.20;;;;;;;13.38;61.81;97347.38;5074192;28;20300;-74
2023/03/23 04:02:47;;;;;;;1.23;1.03;;;;;;;13.33;61.97;97349.97;5074196;28;20293;-74
2023/03/23 04:05:14;;;;;;;2.13;1.30;;;;;;;13.31;62.54;97347.56;5073946;28;20224;-74
2023/03/23 04:07:41;;;;;;;1.70;1.30;;;;;;;13.23;63.28;97340.00;5074246;28;20230;-74
2023/03/23 04:10:09;;;;;;;2.10;1.30;;;;;;;13.31;62.21;97347.56;5074139;28;20212;-74
2023/03/23 04:12:36;;;;;;;1.93;1.27;;;;;;;13.26;62.78;97352.88;5073726;28;20307;-74
2023/03/23 04:15:04;;;;;;;1.80;1.30;;;;;;;13.29;62.59;97352.34;5074018;28;20209;-75
2023/03/23 04:17:30;;;;;;;1.27;1.17;;;;;;;13.22;63.36;97346.41;5074952;28;20201;-74
2023/03/23 04:19:58;;;;;;;1.77;1.30;;;;;;;13.20;62.78;97348.50;5074056;28;20201;-74
2023/03/23 04:22:29;;;;;;;1.40;1.30;;;;;;;13.19;63.79;97362.94;5073572;28;20323;-74
2023/03/23 04:25:02;;;;;;;3.07;0.97;;;;;;;13.28;63.43;97353.41;5073628;28;20249;-74
2023/03/23 04:27:28;;;;;;;2.80;1.10;;;;;;;13.29;63.59;97355.00;5073567;28;20559;-74
2023/03/23 04:29:58;;;;;;;1.87;1.30;;;;;;;13.29;63.14;97356.91;5073646;28;20204;-75
2023/03/23 04:32:28;;;;;;;1.90;1.20;;;;;;;13.29;63.88;97360.34;5073348;28;20339;-75
2023/03/23 04:34:57;;;;;;;2.40;1.13;;;;;;;13.20;63.94;97359.19;5073401;28;20209;-75
2023/03/23 04:37:28;;;;;;;1.33;1.20;;;;;;;13.36;62.80;97352.94;5073550;28;20649;-75
2023/03/23 04:39:59;;;;;;;1.83;1.00;;;;;;;13.35;63.12;97355.88;5073806;28;20194;-75
2023/03/23 04:42:31;;;;;;;2.30;1.20;;;;;;;13.37;63.21;97343.06;5073474;28;20225;-75
2023/03/23 04:44:58;;;;;;;1.50;1.03;;;;;;;13.31;63.52;97346.75;5073584;28;20200;-74
2023/03/23 04:47:29;;;;;;;1.37;1.20;;;;;;;13.28;63.40;97348.06;5073109;28;20667;-75
2023/03/23 04:49:58;;;;;;;2.47;1.30;;;;;;;13.28;64.07;97345.41;5073678;28;20209;-75
2023/03/23 04:52:29;;;;;;;3.47;1.17;;;;;;;13.31;63.77;97346.75;5073318;28;20224;-72
2023/03/23 04:54:56;;;;;;;1.10;1.10;;;;;;;13.31;64.81;97349.44;5072916;28;20254;-72
2023/03/23 04:57:25;;;;;;;3.57;1.30;;;;;;;13.31;64.33;97355.59;5073043;28;20273;-73
2023/03/23 04:59:51;;;;;;;2.33;1.40;;;;;;;13.36;64.16;97357.47;5073251;28;20218;-74
2023/03/23 05:02:18;;;;;;;1.50;1.40;;;;;;;13.37;63.59;97362.56;5072759;28;20238;-74
2023/03/23 05:04:44;;;;;;;3.53;1.10;;;;;;;13.48;62.84;97350.91;5073117;28;20215;-74
2023/03/23 05:07:12;;;;;;;2.10;1.33;;;;;;;13.56;62.52;97350.44;5072915;28;20230;-74
2023/03/23 05:09:38;;;;;;;3.10;1.20;;;;;;;13.60;61.86;97345.41;5072778;28;20208;-74
2023/03/23 05:12:10;;;;;;;2.40;1.20;;;;;;;13.76;61.03;97350.63;5073011;28;20647;-75
2023/03/23 05:14:41;;;;;;;1.10;1.00;;;;;;;13.82;60.67;97341.59;5072843;28;20184;-72
2023/03/23 05:17:08;;;;;;;1.40;1.00;;;;;;;13.80;61.24;97346.34;5072746;28;20185;-73
2023/03/23 05:19:35;;;;;;;2.17;1.10;;;;;;;13.73;61.53;97340.44;5072731;28;20201;-74
2023/03/23 05:22:03;;;;;;;1.80;1.20;;;;;;;13.78;60.90;97343.16;5072459;28;20224;-73
2023/03/23 05:24:35;;;;;;;2.70;1.20;;;;;;;13.73;61.73;97347.63;5072560;28;20284;-72
2023/03/23 05:27:03;;;;;;;1.90;1.10;;;;;;;13.74;61.72;97343.94;5072279;28;20581;-74
2023/03/23 05:29:30;;;;;;;1.27;1.00;;;;;;;13.63;63.42;97336.88;5072705;28;20224;-73
2023/03/23 05:31:59;;;;;;;1.33;1.10;;;;;;;13.66;62.20;97341.72;5072141;28;20540;-73
2023/03/23 05:34:28;;;;;;;2.10;1.00;;;;;;;13.86;60.51;97345.34;5072552;28;20246;-73
2023/03/23 05:36:57;;;;;;;1.47;1.20;;;;;;;13.93;60.37;97345.13;5072482;28;20671;-74
2023/03/23 05:39:24;;;;;;;2.30;1.20;;;;;;;13.98;59.99;97348.63;5072570;28;20204;-74
2023/03/23 05:41:51;;;;;;;1.47;1.10;;;;;;;13.97;60.72;97340.88;5071727;28;20204;-74
2023/03/23 05:44:17;;;;;;;2.93;1.20;;;;;;;14.03;59.67;97339.84;5072315;28;20200;-75
2023/03/23 05:46:44;;;;;;;1.30;1.20;;;;;;;14.18;58.96;97337.25;5072148;28;20200;-73
2023/03/23 05:49:10;;;;;;;1.57;1.20;;;;;;;14.10;59.97;97341.22;5071901;28;20786;-73
2023/03/23 05:51:37;;;;;;;1.23;1.10;;;;;;;14.20;58.51;97343.16;5072050;28;20405;-73
2023/03/23 05:54:04;;;;;;;1.53;1.20;;;;;;;14.11;59.15;97342.84;5071826;28;20228;-73
2023/03/23 05:56:31;;;;;;;1.63;1.00;;;;;;;14.00;60.72;97351.88;5071621;28;20204;-73
2023/03/23 05:58:58;;;;;;;4.37;1.40;;;;;;;13.98;60.57;97353.97;5072091;28;20246;-73
2023/03/23 06:01:26;;;;;;;5.13;1.43;;;;;;;14.01;60.25;97355.31;5071778;28;20734;-74
2023/03/23 06:03:53;;;;;;;1.40;1.10;;;;;;;14.07;60.29;97363.13;5071703;28;20242;-74
2023/03/23 06:06:21;;;;;;;2.47;1.27;;;;;;;13.92;61.24;97365.69;5073145;28;20212;-74
2023/03/23 06:08:50;;;;;;;2.73;1.20;;;;;;;13.96;60.51;97371.31;5075726;28;20224;-73
2023/03/23 06:11:16;;;;;;;2.33;1.40;;;;;;;13.98;60.60;97369.22;5074990;28;20212;-75
2023/03/23 06:13:42;;;;;;;1.20;1.10;;;;;;;14.07;60.19;97379.16;5075284;28;20228;-73
2023/03/23 06:16:09;;;;;;;3.37;1.60;;;;;;;14.13;59.83;97380.81;5075106;28;20200;-73
2023/03/23 06:18:36;;;;;;;3.70;1.30;;;;;;;14.23;59.33;97388.13;5074517;28;20725;-73
2023/03/23 06:21:03;;;;;;;1.60;1.20;;;;;;;14.19;59.18;97384.31;5075415;28;20286;-73
2023/03/23 06:23:30;;;;;;;1.80;1.30;;;;;;;14.16;60.03;97387.50;5074704;28;20236;-73
2023/03/23 06:26:00;;;;;;;1.53;1.33;;;;;;;14.14;59.84;97384.28;5075542;28;20284;-73
2023/03/23 06:28:27;;;;;;;2.87;1.33;;;;;;;14.14;60.02;97390.44;5075152;28;20224;-73
2023/03/23 06:30:54;;;;;;;1.63;1.23;;;;;;;14.18;59.71;97391.53;5074967;28;20205;-73
2023/03/23 06:33:20;;;;;;;2.43;1.40;;;;;;;14.14;60.00;97395.78;5074769;28;20254;-74
2023/03/23 06:35:48;;;;;;;2.30;1.30;;;;;;;14.28;59.27;97396.97;5074567;28;20200;-74
2023/03/23 06:38:14;;;;;;;1.57;1.00;;;;;;;14.26;59.22;97399.13;5074889;28;20201;-74
2023/03/23 06:40:41;;;;;;;1.70;1.10;;;;;;;14.33;58.94;97401.56;5074749;28;20611;-74
2023/03/23 06:43:07;;;;;;;1.83;1.10;;;;;;;14.37;59.03;97408.81;5074586;28;20224;-74
2023/03/23 06:45:34;;;;;;;1.30;1.00;;;;;;;14.35;58.90;97402.09;5074772;28;20205;-74
2023/03/23 06:48:00;;;;;;;2.00;1.27;;;;;;;14.34;59.56;97400.50;5074874;28;20695;-74
2023/03/23 06:50:28;;;;;;;2.50;1.33;;;;;;;14.39;59.25;97411.22;5074522;28;20209;-73
2023/03/23 06:52:54;;;;;;;2.20;1.53;;;;;;;14.53;58.56;97407.03;5074696;28;20262;-72
2023/03/23 06:55:20;;;;;;;1.60;1.40;;;;;;;14.65;59.79;97408.41;5074587;28;20224;-73
2023/03/23 06:57:48;;;;;;;2.73;1.27;;;;;;;14.71;58.38;97411.94;5074573;28;20278;-73
2023/03/23 07:00:15;;;;;;;3.07;1.17;;;;;;;14.80;58.67;97413.88;5074758;28;20208;-73
2023/03/23 07:02:42;;;;;;;1.30;1.10;;;;;;;14.87;57.73;97424.31;5074358;28;20224;-73
2023/03/23 07:05:12;;;;;;;1.87;1.30;;;;;;;14.87;57.56;97425.13;5074228;28;20234;-73
2023/03/23 07:07:40;;;;;;;2.17;1.30;;;;;;;14.87;56.99;97427.78;5074573;28;20554;-73
2023/03/23 07:10:10;;;;;;;1.47;1.37;;;;;;;14.79;57.78;97420.25;5074636;28;20352;-73
2023/03/23 07:12:37;;;;;;;2.20;1.20;;;;;;;14.76;58.13;97426.16;5075057;28;20315;-73
2023/03/23 07:15:05;;;;;;;2.00;1.30;;;;;;;14.74;57.98;97427.47;5074190;28;20205;-72
2023/03/23 07:17:31;;;;;;;2.37;1.23;;;;;;;14.71;58.33;97431.47;5073706;28;20208;-73
2023/03/23 07:19:58;;;;;;;2.90;1.40;;;;;;;14.69;58.37;97436.28;5074136;28;20204;-73
2023/03/23 07:22:24;;;;;;;2.10;1.30;;;;;;;14.64;58.59;97435.44;5074072;28;20229;-72
2023/03/23 07:24:51;;;;;;;1.53;1.40;;;;;;;14.61;58.73;97441.31;5073834;28;20208;-73
2023/03/23 07:27:17;;;;;;;2.40;1.27;;;;;;;14.64;58.24;97446.13;5074175;28;20212;-73
2023/03/23 07:29:44;;;;;;;1.33;1.23;;;;;;;14.64;58.53;97452.28;5073756;28;20221;-72
2023/03/23 07:32:12;;;;;;;3.17;1.40;;;;;;;14.67;58.73;97454.47;5073785;28;20264;-73
2023/03/23 07:34:38;;;;;;;3.17;1.40;;;;;;;14.72;58.64;97462.50;5074814;28;20223;-73
2023/03/23 07:37:05;;;;;;;1.50;1.23;;;;;;;14.69;58.65;97467.56;5073763;28;20249;-73
2023/03/23 07:39:33;;;;;;;2.93;1.40;;;;;;;14.74;58.40;97468.41;5074028;28;20234;-73
2023/03/23 07:41:59;;;;;;;2.93;1.30;;;;;;;14.83;58.32;97472.19;5074311;28;20239;-73
2023/03/23 07:44:25;;;;;;;2.00;1.30;;;;;;;14.90;58.11;97475.47;5073880;28;20200;-73
2023/03/23 07:46:52;;;;;;;3.67;1.37;;;;;;;14.99;57.99;97473.91;5074008;28;20211;-72
2023/03/23 07:49:19;;;;;;;1.87;1.30;;;;;;;15.05;58.58;97480.88;5073740;28;20595;-72
2023/03/23 07:51:46;;;;;;;1.20;1.10;;;;;;;15.21;58.81;97476.41;5073828;28;20212;-72
2023/03/23 07:54:14;;;;;;;1.80;1.40;;;;;;;15.32;57.93;97472.69;5074217;28;20675;-73
2023/03/23 07:56:41;;;;;;;1.97;1.40;;;;;;;15.46;57.72;97474.63;5073399;28;20205;-73
2023/03/23 07:59:08;;;;;;;1.70;1.30;;;;;;;15.63;57.47;97480.59;5073108;28;20227;-73
2023/03/23 08:01:34;;;;;;;2.23;1.23;;;;;;;15.58;57.54;97471.72;5073897;28;20280;-73
2023/03/23 08:04:01;;;;;;;1.30;1.13;;;;;;;15.48;58.42;97472.53;5073465;28;20235;-73
2023/03/23 08:06:28;;;;;;;2.07;1.60;;;;;;;15.38;59.31;97475.13;5073585;28;20211;-73
2023/03/23 08:08:55;;;;;;;2.27;1.23;;;;;;;15.39;58.26;97484.81;5073629;28;20228;-73
2023/03/23 08:11:22;;;;;;;4.17;1.60;;;;;;;15.36;58.89;97481.84;5073635;28;20208;-73
2023/03/23 08:13:48;;;;;;;2.77;1.33;;;;;;;15.32;59.68;97492.25;5073534;28;20278;-73
2023/03/23 08:16:14;;;;;;;2.63;1.20;;;;;;;15.40;59.39;97493.63;5073573;28;20215;-73
2023/03/23 08:18:41;;;;;;;1.47;1.20;;;;;;;15.38;59.47;97493.88;5073591;28;20286;-73
2023/03/23 08:21:09;;;;;;;3.70;1.50;;;;;;;15.43;59.41;97482.41;5073232;28;20205;-73
2023/03/23 08:23:36;;;;;;;1.77;1.37;;;;;;;15.43;60.93;97493.13;5073130;28;20592;-73
2023/03/23 08:26:07;;;;;;;1.47;1.37;;;;;;;15.47;60.63;97486.94;5073529;28;20208;-73
2023/03/23 08:28:34;;;;;;;2.53;1.50;;;;;;;15.48;61.22;97499.31;5072645;28;20212;-73
2023/03/23 08:31:01;;;;;;;4.10;1.70;;;;;;;15.45;60.97;97504.34;5072949;28;20770;-73
2023/03/23 08:33:28;;;;;;;3.20;1.60;;;;;;;15.61;60.24;97498.78;5073004;28;20258;-73
2023/03/23 08:35:57;;;;;;;1.30;1.10;;;;;;;15.64;61.39;97500.13;5072849;28;20215;-73
2023/03/23 08:38:24;;;;;;;2.00;1.20;;;;;;;15.53;61.43;97493.97;5073099;28;20211;-73
2023/03/23 08:40:52;;;;;;;2.27;1.43;;;;;;;15.51;61.26;97495.28;5072750;28;20671;-73
2023/03/23 08:43:19;;;;;;;2.30;1.40;;;;;;;15.52;62.29;97511.06;5072815;28;20314;-73
2023/03/23 08:45:46;;;;;;;1.80;1.30;;;;;;;15.51;62.25;97501.44;5072992;28;20226;-73
2023/03/23 08:48:12;;;;;;;3.43;1.60;;;;;;;15.39;62.89;97508.91;5072515;28;20587;-73
2023/03/23 08:50:39;;;;;;;2.67;1.50;;;;;;;15.34;64.55;97513.44;5073024;28;20210;-73
2023/03/23 08:53:05;;;;;;;1.60;1.50;;;;;;;15.36;63.29;97508.63;5073154;28;20232;-73
2023/03/23 08:55:32;;;;;;;1.77;1.67;;;;;;;15.40;63.79;97515.88;5073191;28;20208;-73
2023/03/23 08:57:58;;;;;;;2.03;1.50;;;;;;;15.34;64.52;97524.16;5072751;28;20204;-73
2023/03/23 09:00:27;;;;;;;2.20;1.30;;;;;;;15.39;65.87;97527.66;5072882;28;20203;-73
2023/03/23 09:02:56;;;;;;;1.90;1.50;;;;;;;15.33;64.66;97527.88;5072547;28;20232;-73
2023/03/23 09:05:27;;;;;;;4.23;1.60;;;;;;;15.39;64.60;97530.34;5072807;28;20262;-73
2023/03/23 09:07:58;;;;;;;1.63;1.53;;;;;;;15.40;65.10;97534.63;5073191;28;20189;-73
2023/03/23 09:10:24;;;;;;;2.33;1.30;;;;;;;15.34;64.48;97534.88;5073206;28;20219;-73
2023/03/23 09:12:53;;;;;;;1.53;1.43;;;;;;;15.41;65.09;97533.56;5072909;28;20228;-73
2023/03/23 09:15:20;;;;;;;3.20;1.87;;;;;;;15.36;65.92;97543.44;5073737;28;20227;-73
2023/03/23 09:17:51;;;;;;;3.23;1.60;;;;;;;15.42;66.36;97545.09;5072524;28;20208;-73
2023/03/23 09:20:21;;;;;;;2.07;1.40;;;;;;;15.45;65.93;97547.22;5072709;28;20189;-73
2023/03/23 09:22:51;;;;;;;1.93;1.40;;;;;;;15.53;65.51;97539.50;5072727;28;20334;-73
2023/03/23 09:25:21;;;;;;;2.73;1.50;;;;;;;15.62;66.14;97545.16;5072518;28;20639;-73
2023/03/23 09:27:52;;;;;;;1.93;1.30;;;;;;;15.68;64.64;97555.63;5072722;28;20254;-73
2023/03/23 09:30:19;;;;;;;2.47;1.50;;;;;;;15.74;64.43;97546.53;5072617;28;20205;-73
2023/03/23 09:32:47;;;;;;;1.87;1.40;;;;;;;15.71;64.66;97549.75;5072419;28;20236;-73
2023/03/23 09:35:16;;;;;;;1.83;1.20;;;;;;;15.64;65.59;97557.22;5072713;28;20282;-73
2023/03/23 09:37:44;;;;;;;1.93;1.53;;;;;;;15.60;63.93;97560.69;5072225;28;20212;-72
2023/03/23 09:40:18;;;;;;;1.83;1.23;;;;;;;15.69;64.27;97556.44;5072648;28;20200;-73
2023/03/23 09:43:10;;;;;;;1.97;1.40;;;;;;;15.70;63.87;97566.88;5075248;28;20715;-73
2023/03/23 09:45:55;;;;;;;1.47;1.23;;;;;;;15.75;62.56;97561.53;5076569;28;20193;-72
2023/03/23 09:48:46;;;;;;;2.00;1.50;;;;;;;15.71;63.74;97573.06;5076572;28;20188;-73
2023/03/23 09:51:38;;;;;;;2.73;1.33;;;;;;;15.61;66.75;97559.63;5076383;28;20666;-73
2023/03/23 09:54:13;;;;;;;4.83;1.43;;;;;;;15.68;65.10;97558.31;5076500;28;20646;-73
2023/03/23 09:56:40;;;;;;;1.97;1.20;;;;;;;15.79;64.37;97567.97;5058941;28;20188;-73
2023/03/23 09:59:18;;;;;;;2.00;1.43;;;;;;;15.89;64.03;97570.72;5075911;28;20224;-73
2023/03/23 10:01:49;;;;;;;1.40;1.20;;;;;;;15.92;64.38;97580.09;5075871;28;20192;-73
2023/03/23 10:04:37;;;;;;;4.30;1.43;;;;;;;15.98;63.36;97574.50;5076013;28;20189;-73
2023/03/23 10:07:28;;;;;;;3.93;1.50;;;;;;;15.99;64.56;97572.59;5076354;28;20207;-73
2023/03/23 10:10:02;;;;;;;5.00;1.70;;;;;;;15.96;63.71;97576.59;5065917;28;20238;-73
2023/03/23 10:12:37;;;;;;;4.30;1.70;;;;;;;16.06;63.41;97583.88;5076018;28;20224;-72
2023/03/23 10:15:15;;;;;;;1.60;1.50;;;;;;;16.18;63.72;97577.19;5076030;28;20277;-73
2023/03/23 10:17:54;;;;;;;3.27;1.40;;;;;;;15.90;63.50;97574.19;5075782;28;20576;-73
2023/03/23 10:20:24;;;;;;;2.77;1.50;;;;;;;16.18;63.55;97581.75;5058114;28;20251;-73
2023/03/23 10:23:09;;;;;;;3.27;1.10;;;;;;;16.35;63.68;97585.00;5075639;28;20229;-73
2023/03/23 10:25:41;;;;;;;1.90;1.40;;;;;;;16.14;63.25;97586.84;5075510;28;20212;-73
2023/03/23 10:28:18;;;;;;;2.73;1.40;;;;;;;16.14;63.81;97586.84;5075428;28;20272;-73
2023/03/23 10:30:49;;;;;;;1.57;1.30;;;;;;;16.04;63.41;97576.09;5074853;28;20675;-73
2023/03/23 10:33:19;;;;;;;2.80;1.30;;;;;;;16.06;63.49;97586.56;5075508;28;20233;-73
2023/03/23 10:35:54;;;;;;;1.97;1.10;;;;;;;16.31;63.95;97579.38;5075144;28;20694;-73
2023/03/23 10:38:25;;;;;;;4.73;1.53;;;;;;;16.12;64.47;97580.13;5074926;28;20208;-73
2023/03/23 10:41:02;;;;;;;1.80;1.40;;;;;;;16.26;63.77;97576.69;5075580;28;20193;-73
2023/03/23 10:43:29;;;;;;;1.30;1.20;;;;;;;16.05;64.78;97583.06;5075184;28;20563;-73
2023/03/23 10:46:02;;;;;;;2.07;1.60;;;;;;;15.94;65.29;97589.50;5075040;28;20209;-73
2023/03/23 10:48:38;;;;;;;1.40;1.30;;;;;;;15.95;65.53;97590.28;5075706;28;20185;-73
2023/03/23 10:51:11;;;;;;;3.53;1.90;;;;;;;15.95;66.18;97591.09;5075202;28;20212;-73
2023/03/23 10:53:44;;;;;;;2.53;1.67;;;;;;;16.04;65.61;97586.81;5073224;28;20232;-73
2023/03/23 10:56:28;;;;;;;2.57;1.33;;;;;;;15.85;65.93;97590.25;5074714;28;20620;-73
2023/03/23 10:58:55;;;;;;;3.37;1.60;;;;;;;15.81;66.96;97592.66;5074623;28;20601;-73
2023/03/23 11:01:32;;;;;;;3.80;1.50;;;;;;;16.12;67.18;97583.63;5074556;28;20208;-73
2023/03/23 11:04:00;;;;;;;2.30;1.43;;;;;;;16.08;65.47;97577.19;5074668;28;20224;-73
2023/03/23 11:06:30;;;;;;;3.33;1.63;;;;;;;16.12;65.64;97574.78;5074695;28;20204;-73
2023/03/23 11:09:02;;;;;;;2.30;1.40;;;;;;;16.13;67.68;97573.69;5074869;28;20196;-73
2023/03/23 11:11:32;;;;;;;3.37;1.50;;;;;;;16.24;66.83;97578.81;5075186;28;20268;-73
2023/03/23 11:14:12;;;;;;;3.83;1.50;;;;;;;16.26;66.13;97570.50;5074629;28;20227;-73
2023/03/23 11:16:45;;;;;;;2.07;1.60;;;;;;;16.33;66.45;97577.22;5057115;28;20185;-73
2023/03/23 11:19:16;;;;;;;1.67;1.20;;;;;;;16.10;66.38;97576.94;5074941;28;20230;-73
2023/03/23 11:21:51;;;;;;;2.67;1.40;;;;;;;16.18;66.69;97571.00;5074478;28;20208;-74
2023/03/23 11:24:18;;;;;;;2.67;1.53;;;;;;;16.16;65.74;97575.84;5074680;28;20659;-73
2023/03/23 11:26:47;;;;;;;2.90;1.27;;;;;;;16.26;66.51;97570.50;5073824;28;20539;-73
2023/03/23 11:29:19;;;;;;;5.17;1.60;;;;;;;16.21;67.36;97578.53;5073878;28;20209;-73
2023/03/23 11:31:50;;;;;;;2.60;1.40;;;;;;;16.24;66.18;97573.44;5057070;28;20188;-73
2023/03/23 11:34:32;;;;;;;2.53;1.27;;;;;;;16.35;66.71;97568.91;5074230;28;20246;-73
2023/03/23 11:37:06;;;;;;;1.30;1.20;;;;;;;16.60;65.05;97567.06;5074341;28;20193;-73
2023/03/23 11:39:48;;;;;;;1.30;1.20;;;;;;;16.68;65.47;97553.09;5074197;28;20544;-73
2023/03/23 11:42:20;;;;;;;2.30;1.40;;;;;;;16.74;64.22;97546.66;5074083;28;20228;-73
2023/03/23 11:44:47;;;;;;;1.53;1.20;;;;;;;16.75;65.23;97547.47;5074618;28;20185;-74
2023/03/23 11:47:37;;;;;;;2.10;1.40;;;;;;;16.86;61.81;97552.56;5074107;28;20206;-73
2023/03/23 11:50:13;;;;;;;1.20;1.10;;;;;;;16.71;62.13;97552.59;5073749;28;20212;-73